sensor_id;sensor_type;location;lat;lon;timestamp;temperature;humidity
14057;DHT22;7103;54.300;10.180;2023-03-12T00:01:15;0.80;99.90
14057;DHT22;7103;54.300;10.180;2023-03-12T00:03:43;0.80;99.90
14057;DHT22;7103;54.300;10.180;2023-03-12T00:06:10;0.80;99.90
14057;DHT22;7103;54.300;10.180;2023-03-12T00:08:38;0.70;99.90
14057;DHT22;7103;54.300;10.180;2023-03-12T00:11:07;0.70;99.90
14057;DHT22;7103;54.300;10.180;2023-03-12T00:13:34;0.70;99.90
14057;DHT22;7103;54.300;10.180;2023-03-12T00:16:12;0.70;99.90
14057;DHT22;7103;54.300;10.180;2023-03-12T00:18:40;0.60;99.90
14057;DHT22;7103;54.300;10.180;2023-03-12T00:21:07;0.60;99.90
14057;DHT22;7103;54.300;10.180;2023-03-12T00:23:35;0.50;99.90
14057;DHT22;7103;54.300;10.180;2023-03-12T00:26:08;0.50;99.90
14057;DHT22;7103;54.300;10.180;2023-03-12T00:28:35;0.50;99.90
14057;DHT22;7103;54.300;10.180;2023-03-12T00:31:03;0.40;99.90
14057;DHT22;7103;54.300;10.180;2023-03-12T00:33:38;0.40;99.90
14057;DHT22;7103;54.300;10.180;2023-03-12T00:36:05;0.40;99.90
14057;DHT22;7103;54.300;10.180;2023-03-12T00:38:32;0.40;1.00
14057;DHT22;7103;54.300;10.180;2023-03-12T00:40:59;0.40;1.00
14057;DHT22;7103;54.300;10.180;2023-03-12T00:43:26;0.50;1.00
14057;DHT22;7103;54.300;10.180;2023-03-12T00:45:53;0.40;1.00
14057;DHT22;7103;54.300;10.180;2023-03-12T00:48:19;0.40;1.00
14057;DHT22;7103;54.300;10.180;2023-03-12T00:50:46;0.40;1.00
14057;DHT22;7103;54.300;10.180;2023-03-12T00:53:14;0.40;1.00
14057;DHT22;7103;54.300;10.180;2023-03-12T00:55:41;0.40;1.00
14057;DHT22;7103;54.300;10.180;2023-03-12T00:58:08;0.40;1.00
14057;DHT22;7103;54.300;10.180;2023-03-12T01:00:35;0.40;1.00
14057;DHT22;7103;54.300;10.180;2023-03-12T01:03:02;0.30;1.00
14057;DHT22;7103;54.300;10.180;2023-03-12T01:05:29;0.40;1.00
14057;DHT22;7103;54.300;10.180;2023-03-12T01:07:56;0.40;1.00
14057;DHT22;7103;54.300;10.180;2023-03-12T01:10:22;0.40;1.00
14057;DHT22;7103;54.300;10.180;2023-03-12T01:12:49;0.40;1.00
14057;DHT22;7103;54.300;10.180;2023-03-12T01:15:16;0.40;1.00
14057;DHT22;7103;54.300;10.180;2023-03-12T01:17:43;0.40;1.00
14057;DHT22;7103;54.300;10.180;2023-03-12T01:20:11;0.40;1.00
14057;DHT22;7103;54.300;10.180;2023-03-12T01:22:38;0.40;1.00
14057;DHT22;7103;54.300;10.180;2023-03-12T01:25:05;0.30;1.00
14057;DHT22;7103;54.300;10.180;2023-03-12T01:27:32;0.20;1.00
14057;DHT22;7103;54.300;10.180;2023-03-12T01:29:59;0.20;1.00
14057;DHT22;7103;54.300;10.180;2023-03-12T01:32:26;0.30;1.00
14057;DHT22;7103;54.300;10.180;2023-03-12T01:34:53;0.40;1.00
14057;DHT22;7103;54.300;10.180;2023-03-12T01:37:20;0.30;1.00
14057;DHT22;7103;54.300;10.180;2023-03-12T01:39:47;0.30;1.00
14057;DHT22;7103;54.300;10.180;2023-03-12T01:42:14;0.30;1.00
14057;DHT22;7103;54.300;10.180;2023-03-12T01:45:02;0.30;1.00
14057;DHT22;7103;54.300;10.180;2023-03-12T01:47:29;0.30;1.00
14057;DHT22;7103;54.300;10.180;2023-03-12T01:49:59;0.20;1.00
14057;DHT22;7103;54.300;10.180;2023-03-12T01:52:30;0.20;1.00
14057;DHT22;7103;54.300;10.180;2023-03-12T01:55:12;0.20;1.00
14057;DHT22;7103;54.300;10.180;2023-03-12T01:57:44;0.10;1.00
14057;DHT22;7103;54.300;10.180;2023-03-12T02:00:17;0.10;1.00
14057;DHT22;7103;54.300;10.180;2023-03-12T02:02:46;0.10;99.90
14057;DHT22;7103;54.300;10.180;2023-03-12T02:05:35;0.00;99.90
14057;DHT22;7103;54.300;10.180;2023-03-12T02:08:06;0.00;99.90
14057;DHT22;7103;54.300;10.180;2023-03-12T02:10:33;0.00;99.90
14057;DHT22;7103;54.300;10.180;2023-03-12T02:13:00;0.00;99.90
14057;DHT22;7103;54.300;10.180;2023-03-12T02:15:27;-0.10;99.90
14057;DHT22;7103;54.300;10.180;2023-03-12T02:17:54;-0.20;99.90
14057;DHT22;7103;54.300;10.180;2023-03-12T02:23:20;-0.30;99.90
14057;DHT22;7103;54.300;10.180;2023-03-12T02:25:52;-0.30;99.90
14057;DHT22;7103;54.300;10.180;2023-03-12T02:28:22;-0.40;99.90
14057;DHT22;7103;54.300;10.180;2023-03-12T02:30:52;-0.30;99.90
14057;DHT22;7103;54.300;10.180;2023-03-12T02:33:21;-0.30;99.90
14057;DHT22;7103;54.300;10.180;2023-03-12T02:35:48;-0.40;99.90
14057;DHT22;7103;54.300;10.180;2023-03-12T02:43:48;-0.40;99.90
14057;DHT22;7103;54.300;10.180;2023-03-12T02:46:15;-0.50;99.90
14057;DHT22;7103;54.300;10.180;2023-03-12T02:48:43;-0.50;99.90
14057;DHT22;7103;54.300;10.180;2023-03-12T02:51:09;-0.40;99.90
14057;DHT22;7103;54.300;10.180;2023-03-12T02:53:36;-0.40;99.90
14057;DHT22;7103;54.300;10.180;2023-03-12T02:56:04;-0.40;99.90
14057;DHT22;7103;54.300;10.180;2023-03-12T02:58:31;-0.50;99.90
14057;DHT22;7103;54.300;10.180;2023-03-12T03:00:59;-0.50;99.90
14057;DHT22;7103;54.300;10.180;2023-03-12T03:03:26;-0.50;99.90
14057;DHT22;7103;54.300;10.180;2023-03-12T03:05:53;-0.60;99.90
14057;DHT22;7103;54.300;10.180;2023-03-12T03:08:19;-0.50;99.90
14057;DHT22;7103;54.300;10.180;2023-03-12T03:10:46;-0.60;99.90
14057;DHT22;7103;54.300;10.180;2023-03-12T03:13:15;-0.60;99.90
14057;DHT22;7103;54.300;10.180;2023-03-12T03:15:42;-0.60;99.90
14057;DHT22;7103;54.300;10.180;2023-03-12T03:18:09;-0.60;99.90
14057;DHT22;7103;54.300;10.180;2023-03-12T03:20:36;-0.60;99.90
14057;DHT22;7103;54.300;10.180;2023-03-12T03:23:03;-0.60;99.90
14057;DHT22;7103;54.300;10.180;2023-03-12T03:25:31;-0.70;99.90
14057;DHT22;7103;54.300;10.180;2023-03-12T03:27:58;-0.60;99.90
14057;DHT22;7103;54.300;10.180;2023-03-12T03:30:25;-0.60;99.90
14057;DHT22;7103;54.300;10.180;2023-03-12T03:32:52;-0.60;99.90
14057;DHT22;7103;54.300;10.180;2023-03-12T03:35:19;-0.60;99.90
14057;DHT22;7103;54.300;10.180;2023-03-12T03:37:47;-0.60;99.90
14057;DHT22;7103;54.300;10.180;2023-03-12T03:40:14;-0.60;99.90
14057;DHT22;7103;54.300;10.180;2023-03-12T03:42:41;-0.60;99.90
14057;DHT22;7103;54.300;10.180;2023-03-12T03:45:08;-0.60;99.90
14057;DHT22;7103;54.300;10.180;2023-03-12T03:47:35;-0.60;99.90
14057;DHT22;7103;54.300;10.180;2023-03-12T03:50:03;-0.60;99.90
14057;DHT22;7103;54.300;10.180;2023-03-12T03:52:30;-0.60;99.90
14057;DHT22;7103;54.300;10.180;2023-03-12T03:54:58;-0.60;99.90
14057;DHT22;7103;54.300;10.180;2023-03-12T03:57:26;-0.60;99.90
14057;DHT22;7103;54.300;10.180;2023-03-12T03:59:52;-0.50;99.90
14057;DHT22;7103;54.300;10.180;2023-03-12T04:02:20;-0.40;99.90
14057;DHT22;7103;54.300;10.180;2023-03-12T04:04:47;-0.40;99.90
14057;DHT22;7103;54.300;10.180;2023-03-12T04:07:14;-0.40;99.90
14057;DHT22;7103;54.300;10.180;2023-03-12T04:09:42;-0.40;99.90
14057;DHT22;7103;54.300;10.180;2023-03-12T04:12:09;-0.40;99.90
14057;DHT22;7103;54.300;10.180;2023-03-12T04:14:39;-0.40;99.90
14057;DHT22;7103;54.300;10.180;2023-03-12T04:17:06;-0.40;99.90
14057;DHT22;7103;54.300;10.180;2023-03-12T04:19:34;-0.40;99.90
14057;DHT22;7103;54.300;10.180;2023-03-12T04:22:01;-0.40;99.90
14057;DHT22;7103;54.300;10.180;2023-03-12T04:24:28;-0.40;99.90
14057;DHT22;7103;54.300;10.180;2023-03-12T04:26:56;-0.50;99.90
14057;DHT22;7103;54.300;10.180;2023-03-12T04:29:23;-0.50;99.90
14057;DHT22;7103;54.300;10.180;2023-03-12T04:31:50;-0.60;99.90
14057;DHT22;7103;54.300;10.180;2023-03-12T04:34:17;-0.60;99.90
14057;DHT22;7103;54.300;10.180;2023-03-12T04:36:44;-0.70;99.90
14057;DHT22;7103;54.300;10.180;2023-03-12T04:39:15;-0.70;99.90
14057;DHT22;7103;54.300;10.180;2023-03-12T04:41:42;-0.80;99.90
14057;DHT22;7103;54.300;10.180;2023-03-12T04:44:08;-0.80;99.90
14057;DHT22;7103;54.300;10.180;2023-03-12T04:46:38;-0.70;99.90
14057;DHT22;7103;54.300;10.180;2023-03-12T04:49:05;-0.70;99.90
14057;DHT22;7103;54.300;10.180;2023-03-12T04:51:32;-0.80;99.90
14057;DHT22;7103;54.300;10.180;2023-03-12T04:53:59;-0.80;99.90
14057;DHT22;7103;54.300;10.180;2023-03-12T04:56:26;-0.60;99.90
14057;DHT22;7103;54.300;10.180;2023-03-12T04:58:52;-0.60;99.90
14057;DHT22;7103;54.300;10.180;2023-03-12T05:01:28;-0.60;99.90
14057;DHT22;7103;54.300;10.180;2023-03-12T05:03:55;-0.70;99.90
14057;DHT22;7103;54.300;10.180;2023-03-12T05:06:23;-0.80;99.90
14057;DHT22;7103;54.300;10.180;2023-03-12T05:08:50;-0.80;99.90
14057;DHT22;7103;54.300;10.180;2023-03-12T05:11:17;-0.90;99.90
14057;DHT22;7103;54.300;10.180;2023-03-12T05:13:45;-0.80;99.90
14057;DHT22;7103;54.300;10.180;2023-03-12T05:16:13;-0.80;99.90
14057;DHT22;7103;54.300;10.180;2023-03-12T05:18:41;-0.70;99.90
14057;DHT22;7103;54.300;10.180;2023-03-12T05:21:13;-0.80;99.90
14057;DHT22;7103;54.300;10.180;2023-03-12T05:23:40;-0.70;99.90
14057;DHT22;7103;54.300;10.180;2023-03-12T05:26:21;-0.70;99.90
14057;DHT22;7103;54.300;10.180;2023-03-12T05:28:48;-0.60;99.90
14057;DHT22;7103;54.300;10.180;2023-03-12T05:31:16;-0.60;99.90
14057;DHT22;7103;54.300;10.180;2023-03-12T05:33:43;-0.60;99.90
14057;DHT22;7103;54.300;10.180;2023-03-12T05:36:11;-0.50;99.90
14057;DHT22;7103;54.300;10.180;2023-03-12T05:38:39;-0.50;99.90
14057;DHT22;7103;54.300;10.180;2023-03-12T05:41:06;-0.40;99.90
14057;DHT22;7103;54.300;10.180;2023-03-12T05:43:33;-0.40;99.90
14057;DHT22;7103;54.300;10.180;2023-03-12T05:46:04;-0.40;99.90
14057;DHT22;7103;54.300;10.180;2023-03-12T05:48:31;-0.40;99.90
14057;DHT22;7103;54.300;10.180;2023-03-12T05:50:58;-0.40;99.90
14057;DHT22;7103;54.300;10.180;2023-03-12T05:53:25;-0.40;99.90
14057;DHT22;7103;54.300;10.180;2023-03-12T05:55:52;-0.40;99.90
14057;DHT22;7103;54.300;10.180;2023-03-12T05:58:19;-0.30;99.90
14057;DHT22;7103;54.300;10.180;2023-03-12T06:00:46;-0.20;99.90
14057;DHT22;7103;54.300;10.180;2023-03-12T06:03:13;-0.20;99.90
14057;DHT22;7103;54.300;10.180;2023-03-12T06:05:40;-0.20;99.90
14057;DHT22;7103;54.300;10.180;2023-03-12T06:08:06;-0.20;99.90
14057;DHT22;7103;54.300;10.180;2023-03-12T06:10:35;-0.10;99.90
14057;DHT22;7103;54.300;10.180;2023-03-12T06:13:02;-0.10;99.90
14057;DHT22;7103;54.300;10.180;2023-03-12T06:15:29;0.00;99.90
14057;DHT22;7103;54.300;10.180;2023-03-12T06:17:56;0.00;99.90
14057;DHT22;7103;54.300;10.180;2023-03-12T06:20:23;-0.10;99.90
14057;DHT22;7103;54.300;10.180;2023-03-12T06:22:50;0.00;99.90
14057;DHT22;7103;54.300;10.180;2023-03-12T06:25:17;0.00;99.90
14057;DHT22;7103;54.300;10.180;2023-03-12T06:27:44;0.10;99.90
14057;DHT22;7103;54.300;10.180;2023-03-12T06:30:11;0.10;99.90
14057;DHT22;7103;54.300;10.180;2023-03-12T06:32:38;0.20;99.90
14057;DHT22;7103;54.300;10.180;2023-03-12T06:35:09;0.20;99.90
14057;DHT22;7103;54.300;10.180;2023-03-12T06:37:36;0.30;99.90
14057;DHT22;7103;54.300;10.180;2023-03-12T06:40:03;0.30;99.90
14057;DHT22;7103;54.300;10.180;2023-03-12T06:42:30;0.40;99.90
14057;DHT22;7103;54.300;10.180;2023-03-12T06:44:57;0.40;99.90
14057;DHT22;7103;54.300;10.180;2023-03-12T06:47:24;0.50;99.90
14057;DHT22;7103;54.300;10.180;2023-03-12T06:49:51;0.50;99.90
14057;DHT22;7103;54.300;10.180;2023-03-12T06:52:18;0.60;99.90
14057;DHT22;7103;54.300;10.180;2023-03-12T06:54:45;0.60;99.90
14057;DHT22;7103;54.300;10.180;2023-03-12T06:57:12;0.70;99.90
14057;DHT22;7103;54.300;10.180;2023-03-12T06:59:38;0.70;99.90
14057;DHT22;7103;54.300;10.180;2023-03-12T07:02:05;0.80;99.90
14057;DHT22;7103;54.300;10.180;2023-03-12T07:04:32;1.00;99.90
14057;DHT22;7103;54.300;10.180;2023-03-12T07:06:59;1.00;99.90
14057;DHT22;7103;54.300;10.180;2023-03-12T07:09:26;1.00;99.90
14057;DHT22;7103;54.300;10.180;2023-03-12T07:11:53;1.20;99.90
14057;DHT22;7103;54.300;10.180;2023-03-12T07:14:19;1.30;99.90
14057;DHT22;7103;54.300;10.180;2023-03-12T07:16:47;1.30;99.90
14057;DHT22;7103;54.300;10.180;2023-03-12T07:19:14;1.30;99.90
14057;DHT22;7103;54.300;10.180;2023-03-12T07:21:41;1.40;99.90
14057;DHT22;7103;54.300;10.180;2023-03-12T07:24:08;1.40;99.90
14057;DHT22;7103;54.300;10.180;2023-03-12T07:26:35;1.40;99.90
14057;DHT22;7103;54.300;10.180;2023-03-12T07:29:03;1.50;99.90
14057;DHT22;7103;54.300;10.180;2023-03-12T07:31:30;1.50;99.90
14057;DHT22;7103;54.300;10.180;2023-03-12T07:33:57;1.50;99.90
14057;DHT22;7103;54.300;10.180;2023-03-12T07:36:24;1.50;99.90
14057;DHT22;7103;54.300;10.180;2023-03-12T07:38:52;1.50;99.90
14057;DHT22;7103;54.300;10.180;2023-03-12T07:41:18;1.60;99.90
14057;DHT22;7103;54.300;10.180;2023-03-12T07:43:45;1.60;99.90
14057;DHT22;7103;54.300;10.180;2023-03-12T07:46:13;1.60;99.90
14057;DHT22;7103;54.300;10.180;2023-03-12T07:48:40;1.60;99.90
14057;DHT22;7103;54.300;10.180;2023-03-12T07:51:10;1.70;99.90
14057;DHT22;7103;54.300;10.180;2023-03-12T07:53:37;1.70;99.90
14057;DHT22;7103;54.300;10.180;2023-03-12T07:56:04;1.60;99.90
14057;DHT22;7103;54.300;10.180;2023-03-12T07:58:31;1.70;99.90
14057;DHT22;7103;54.300;10.180;2023-03-12T08:00:59;1.80;99.90
14057;DHT22;7103;54.300;10.180;2023-03-12T08:03:26;1.80;99.90
14057;DHT22;7103;54.300;10.180;2023-03-12T08:05:58;1.80;99.90
14057;DHT22;7103;54.300;10.180;2023-03-12T08:08:26;1.80;99.90
14057;DHT22;7103;54.300;10.180;2023-03-12T08:10:54;1.90;99.90
14057;DHT22;7103;54.300;10.180;2023-03-12T08:13:21;2.00;99.90
14057;DHT22;7103;54.300;10.180;2023-03-12T08:15:50;2.00;99.90
14057;DHT22;7103;54.300;10.180;2023-03-12T08:18:19;2.00;99.90
14057;DHT22;7103;54.300;10.180;2023-03-12T08:20:49;2.00;99.90
14057;DHT22;7103;54.300;10.180;2023-03-12T08:23:16;2.00;99.90
14057;DHT22;7103;54.300;10.180;2023-03-12T08:25:47;2.10;99.90
14057;DHT22;7103;54.300;10.180;2023-03-12T08:28:15;2.10;99.90
14057;DHT22;7103;54.300;10.180;2023-03-12T08:30:50;2.10;99.90
14057;DHT22;7103;54.300;10.180;2023-03-12T08:33:18;2.10;99.90
14057;DHT22;7103;54.300;10.180;2023-03-12T08:35:45;2.00;99.90
14057;DHT22;7103;54.300;10.180;2023-03-12T08:38:12;2.10;99.90
14057;DHT22;7103;54.300;10.180;2023-03-12T08:40:39;2.10;99.90
14057;DHT22;7103;54.300;10.180;2023-03-12T08:43:06;2.20;99.90
14057;DHT22;7103;54.300;10.180;2023-03-12T08:45:34;2.20;99.90
14057;DHT22;7103;54.300;10.180;2023-03-12T08:48:05;2.30;99.90
14057;DHT22;7103;54.300;10.180;2023-03-12T08:50:32;2.40;99.90
14057;DHT22;7103;54.300;10.180;2023-03-12T08:52:59;2.40;99.90
14057;DHT22;7103;54.300;10.180;2023-03-12T08:55:27;2.40;99.90
14057;DHT22;7103;54.300;10.180;2023-03-12T08:57:54;2.60;99.90
14057;DHT22;7103;54.300;10.180;2023-03-12T09:00:22;2.50;99.90
14057;DHT22;7103;54.300;10.180;2023-03-12T09:02:48;2.50;99.90
14057;DHT22;7103;54.300;10.180;2023-03-12T09:05:17;2.50;99.90
14057;DHT22;7103;54.300;10.180;2023-03-12T09:07:45;2.60;99.90
14057;DHT22;7103;54.300;10.180;2023-03-12T09:10:11;2.60;99.90
14057;DHT22;7103;54.300;10.180;2023-03-12T09:12:38;2.70;99.90
14057;DHT22;7103;54.300;10.180;2023-03-12T09:15:06;2.70;99.90
14057;DHT22;7103;54.300;10.180;2023-03-12T09:17:33;2.80;99.90
14057;DHT22;7103;54.300;10.180;2023-03-12T09:20:00;2.90;99.90
14057;DHT22;7103;54.300;10.180;2023-03-12T09:22:28;3.20;99.90
14057;DHT22;7103;54.300;10.180;2023-03-12T09:24:56;2.90;99.90
14057;DHT22;7103;54.300;10.180;2023-03-12T09:27:23;3.00;99.90
14057;DHT22;7103;54.300;10.180;2023-03-12T09:29:50;3.10;99.90
14057;DHT22;7103;54.300;10.180;2023-03-12T09:32:30;3.20;99.90
14057;DHT22;7103;54.300;10.180;2023-03-12T09:34:57;3.10;99.90
14057;DHT22;7103;54.300;10.180;2023-03-12T09:37:24;3.00;99.90
14057;DHT22;7103;54.300;10.180;2023-03-12T09:39:52;3.10;99.90
14057;DHT22;7103;54.300;10.180;2023-03-12T09:42:40;3.10;99.90
14057;DHT22;7103;54.300;10.180;2023-03-12T09:45:15;3.20;99.90
14057;DHT22;7103;54.300;10.180;2023-03-12T09:47:48;3.30;99.90
14057;DHT22;7103;54.300;10.180;2023-03-12T09:50:20;3.40;99.90
14057;DHT22;7103;54.300;10.180;2023-03-12T09:55:22;3.60;99.90
14057;DHT22;7103;54.300;10.180;2023-03-12T09:57:51;3.80;99.90
14057;DHT22;7103;54.300;10.180;2023-03-12T10:00:23;3.90;99.90
14057;DHT22;7103;54.300;10.180;2023-03-12T10:11:44;4.00;99.90
14057;DHT22;7103;54.300;10.180;2023-03-12T10:14:38;4.20;99.90
14057;DHT22;7103;54.300;10.180;2023-03-12T10:17:34;4.30;99.90
14057;DHT22;7103;54.300;10.180;2023-03-12T10:20:31;4.50;99.90
14057;DHT22;7103;54.300;10.180;2023-03-12T10:28:33;4.70;99.90
14057;DHT22;7103;54.300;10.180;2023-03-12T10:31:05;4.80;99.90
14057;DHT22;7103;54.300;10.180;2023-03-12T10:33:43;4.80;91.70
14057;DHT22;7103;54.300;10.180;2023-03-12T10:36:34;4.80;84.20
14057;DHT22;7103;54.300;10.180;2023-03-12T10:39:03;4.90;90.50
14057;DHT22;7103;54.300;10.180;2023-03-12T10:41:31;5.00;91.00
14057;DHT22;7103;54.300;10.180;2023-03-12T10:44:05;4.90;67.90
14057;DHT22;7103;54.300;10.180;2023-03-12T10:54:37;5.20;18.80
14057;DHT22;7103;54.300;10.180;2023-03-12T10:57:07;5.10;3.80
14057;DHT22;7103;54.300;10.180;2023-03-12T10:59:40;5.10;7.80
14057;DHT22;7103;54.300;10.180;2023-03-12T11:02:30;5.10;1.00
14057;DHT22;7103;54.300;10.180;2023-03-12T11:04:58;5.20;1.00
14057;DHT22;7103;54.300;10.180;2023-03-12T11:07:33;5.20;1.00
14057;DHT22;7103;54.300;10.180;2023-03-12T11:12:35;5.30;1.00
14057;DHT22;7103;54.300;10.180;2023-03-12T11:15:23;5.40;1.00
14057;DHT22;7103;54.300;10.180;2023-03-12T11:17:50;5.20;1.00
14057;DHT22;7103;54.300;10.180;2023-03-12T11:22:47;5.30;1.00
14057;DHT22;7103;54.300;10.180;2023-03-12T11:25:24;5.40;1.00
14057;DHT22;7103;54.300;10.180;2023-03-12T11:28:00;5.30;1.00
14057;DHT22;7103;54.300;10.180;2023-03-12T11:30:34;5.30;1.00
14057;DHT22;7103;54.300;10.180;2023-03-12T11:33:02;5.20;1.00
14057;DHT22;7103;54.300;10.180;2023-03-12T11:38:42;5.30;1.00
14057;DHT22;7103;54.300;10.180;2023-03-12T11:44:05;5.20;1.00
14057;DHT22;7103;54.300;10.180;2023-03-12T11:52:47;5.20;1.00
14057;DHT22;7103;54.300;10.180;2023-03-12T11:58:30;5.30;1.00
14057;DHT22;7103;54.300;10.180;2023-03-12T12:04:36;5.40;1.00
14057;DHT22;7103;54.300;10.180;2023-03-12T12:12:50;5.60;1.00
14057;DHT22;7103;54.300;10.180;2023-03-12T12:15:36;5.60;1.00
14057;DHT22;7103;54.300;10.180;2023-03-12T12:35:34;6.10;1.00
14057;DHT22;7103;54.300;10.180;2023-03-12T12:38:04;6.10;1.00
14057;DHT22;7103;54.300;10.180;2023-03-12T12:40:53;6.00;1.00
14057;DHT22;7103;54.300;10.180;2023-03-12T12:43:32;5.90;1.00
14057;DHT22;7103;54.300;10.180;2023-03-12T12:46:12;5.80;1.00
14057;DHT22;7103;54.300;10.180;2023-03-12T12:48:45;5.80;1.00
14057;DHT22;7103;54.300;10.180;2023-03-12T12:51:15;5.80;1.00
14057;DHT22;7103;54.300;10.180;2023-03-12T12:56:46;5.70;1.00
14057;DHT22;7103;54.300;10.180;2023-03-12T12:59:45;5.60;1.00
14057;DHT22;7103;54.300;10.180;2023-03-12T13:02:25;5.60;1.00
14057;DHT22;7103;54.300;10.180;2023-03-12T13:05:00;5.60;1.00
14057;DHT22;7103;54.300;10.180;2023-03-12T13:07:30;5.60;1.00
14057;DHT22;7103;54.300;10.180;2023-03-12T13:10:04;5.40;1.00
14057;DHT22;7103;54.300;10.180;2023-03-12T13:12:41;5.30;1.00
14057;DHT22;7103;54.300;10.180;2023-03-12T13:18:07;5.30;1.00
14057;DHT22;7103;54.300;10.180;2023-03-12T13:20:45;5.30;1.00
14057;DHT22;7103;54.300;10.180;2023-03-12T13:23:44;5.30;1.00
14057;DHT22;7103;54.300;10.180;2023-03-12T13:26:28;5.30;1.00
14057;DHT22;7103;54.300;10.180;2023-03-12T13:29:00;5.30;1.00
14057;DHT22;7103;54.300;10.180;2023-03-12T13:31:40;5.30;1.00
14057;DHT22;7103;54.300;10.180;2023-03-12T13:34:31;5.30;1.00
14057;DHT22;7103;54.300;10.180;2023-03-12T13:37:18;5.40;1.00
14057;DHT22;7103;54.300;10.180;2023-03-12T13:39:45;5.50;1.00
14057;DHT22;7103;54.300;10.180;2023-03-12T13:44:49;5.50;1.00
14057;DHT22;7103;54.300;10.180;2023-03-12T13:47:26;5.50;1.00
14057;DHT22;7103;54.300;10.180;2023-03-12T13:50:13;5.40;1.00
14057;DHT22;7103;54.300;10.180;2023-03-12T13:52:49;5.40;1.00
14057;DHT22;7103;54.300;10.180;2023-03-12T13:55:28;5.40;1.00
14057;DHT22;7103;54.300;10.180;2023-03-12T13:58:13;5.40;1.00
14057;DHT22;7103;54.300;10.180;2023-03-12T14:01:12;5.40;1.00
14057;DHT22;7103;54.300;10.180;2023-03-12T14:03:44;5.40;1.00
14057;DHT22;7103;54.300;10.180;2023-03-12T14:06:23;5.50;1.00
14057;DHT22;7103;54.300;10.180;2023-03-12T14:14:58;5.20;1.00
14057;DHT22;7103;54.300;10.180;2023-03-12T14:17:28;5.10;1.00
14057;DHT22;7103;54.300;10.180;2023-03-12T14:20:00;5.10;1.00
14057;DHT22;7103;54.300;10.180;2023-03-12T14:22:31;5.10;1.00
14057;DHT22;7103;54.300;10.180;2023-03-12T14:25:16;5.10;1.00
14057;DHT22;7103;54.300;10.180;2023-03-12T14:27:47;5.20;1.00
14057;DHT22;7103;54.300;10.180;2023-03-12T14:30:21;5.30;1.00
14057;DHT22;7103;54.300;10.180;2023-03-12T14:32:52;5.20;1.00
14057;DHT22;7103;54.300;10.180;2023-03-12T14:35:27;5.20;1.00
14057;DHT22;7103;54.300;10.180;2023-03-12T14:38:02;5.00;1.00
14057;DHT22;7103;54.300;10.180;2023-03-12T14:45:53;4.90;1.00
14057;DHT22;7103;54.300;10.180;2023-03-12T14:48:23;4.90;1.00
14057;DHT22;7103;54.300;10.180;2023-03-12T14:50:54;5.10;1.00
14057;DHT22;7103;54.300;10.180;2023-03-12T14:53:30;5.00;1.00
14057;DHT22;7103;54.300;10.180;2023-03-12T14:56:11;4.90;1.00
14057;DHT22;7103;54.300;10.180;2023-03-12T14:58:45;4.90;1.00
14057;DHT22;7103;54.300;10.180;2023-03-12T15:01:16;4.80;1.00
14057;DHT22;7103;54.300;10.180;2023-03-12T15:03:47;4.70;1.00
14057;DHT22;7103;54.300;10.180;2023-03-12T15:06:36;4.60;1.00
14057;DHT22;7103;54.300;10.180;2023-03-12T15:09:06;4.60;1.00
14057;DHT22;7103;54.300;10.180;2023-03-12T15:11:39;4.40;1.00
14057;DHT22;7103;54.300;10.180;2023-03-12T15:14:11;4.40;1.00
14057;DHT22;7103;54.300;10.180;2023-03-12T15:16:41;4.10;1.00
14057;DHT22;7103;54.300;10.180;2023-03-12T15:19:13;4.20;1.00
14057;DHT22;7103;54.300;10.180;2023-03-12T15:21:42;4.00;1.00
14057;DHT22;7103;54.300;10.180;2023-03-12T15:24:11;4.00;1.00
14057;DHT22;7103;54.300;10.180;2023-03-12T15:26:39;3.90;1.00
14057;DHT22;7103;54.300;10.180;2023-03-12T15:31:49;3.90;1.00
14057;DHT22;7103;54.300;10.180;2023-03-12T15:36:53;3.80;1.00
14057;DHT22;7103;54.300;10.180;2023-03-12T15:39:32;3.80;1.00
14057;DHT22;7103;54.300;10.180;2023-03-12T15:42:06;3.80;1.00
14057;DHT22;7103;54.300;10.180;2023-03-12T15:47:23;3.80;1.00
14057;DHT22;7103;54.300;10.180;2023-03-12T15:49:53;3.70;1.00
14057;DHT22;7103;54.300;10.180;2023-03-12T15:55:05;3.60;1.00
14057;DHT22;7103;54.300;10.180;2023-03-12T15:57:33;3.60;1.00
14057;DHT22;7103;54.300;10.180;2023-03-12T16:05:20;3.50;1.00
14057;DHT22;7103;54.300;10.180;2023-03-12T16:07:48;3.40;1.00
14057;DHT22;7103;54.300;10.180;2023-03-12T16:10:17;3.40;1.00
14057;DHT22;7103;54.300;10.180;2023-03-12T16:12:45;3.40;1.00
14057;DHT22;7103;54.300;10.180;2023-03-12T16:15:14;3.30;1.00
14057;DHT22;7103;54.300;10.180;2023-03-12T16:17:42;3.20;1.00
14057;DHT22;7103;54.300;10.180;2023-03-12T16:20:13;3.20;1.00
14057;DHT22;7103;54.300;10.180;2023-03-12T16:22:40;3.10;1.00
14057;DHT22;7103;54.300;10.180;2023-03-12T16:25:07;3.10;1.00
14057;DHT22;7103;54.300;10.180;2023-03-12T16:27:50;3.10;1.00
14057;DHT22;7103;54.300;10.180;2023-03-12T16:30:23;3.10;1.00
14057;DHT22;7103;54.300;10.180;2023-03-12T16:32:51;3.00;1.00
14057;DHT22;7103;54.300;10.180;2023-03-12T16:35:19;3.00;1.00
14057;DHT22;7103;54.300;10.180;2023-03-12T16:37:46;3.00;1.00
14057;DHT22;7103;54.300;10.180;2023-03-12T16:40:14;2.90;1.00
14057;DHT22;7103;54.300;10.180;2023-03-12T16:42:59;2.80;1.00
14057;DHT22;7103;54.300;10.180;2023-03-12T16:45:30;2.80;1.00
14057;DHT22;7103;54.300;10.180;2023-03-12T16:48:02;2.80;3.60
14057;DHT22;7103;54.300;10.180;2023-03-12T16:50:29;2.80;9.20
14057;DHT22;7103;54.300;10.180;2023-03-12T16:52:56;2.80;9.50
14057;DHT22;7103;54.300;10.180;2023-03-12T16:55:28;2.80;17.00
14057;DHT22;7103;54.300;10.180;2023-03-12T16:57:59;2.80;17.10
14057;DHT22;7103;54.300;10.180;2023-03-12T17:00:29;2.80;17.20
14057;DHT22;7103;54.300;10.180;2023-03-12T17:02:56;2.80;17.80
14057;DHT22;7103;54.300;10.180;2023-03-12T17:05:26;2.80;24.90
14057;DHT22;7103;54.300;10.180;2023-03-12T17:07:54;2.80;32.70
14057;DHT22;7103;54.300;10.180;2023-03-12T17:10:22;2.80;37.60
14057;DHT22;7103;54.300;10.180;2023-03-12T17:12:50;2.80;44.70
14057;DHT22;7103;54.300;10.180;2023-03-12T17:15:23;2.80;49.80
14057;DHT22;7103;54.300;10.180;2023-03-12T17:17:52;2.80;61.00
14057;DHT22;7103;54.300;10.180;2023-03-12T17:20:23;2.80;73.20
14057;DHT22;7103;54.300;10.180;2023-03-12T17:22:50;2.70;73.20
14057;DHT22;7103;54.300;10.180;2023-03-12T17:25:24;2.80;86.00
14057;DHT22;7103;54.300;10.180;2023-03-12T17:27:52;2.80;92.30
14057;DHT22;7103;54.300;10.180;2023-03-12T17:30:19;2.80;92.10
14057;DHT22;7103;54.300;10.180;2023-03-12T17:32:48;2.80;98.50
14057;DHT22;7103;54.300;10.180;2023-03-12T17:35:17;2.80;99.90
14057;DHT22;7103;54.300;10.180;2023-03-12T17:37:44;2.80;99.90
14057;DHT22;7103;54.300;10.180;2023-03-12T17:40:14;2.80;99.90
14057;DHT22;7103;54.300;10.180;2023-03-12T17:42:41;2.80;99.90
14057;DHT22;7103;54.300;10.180;2023-03-12T17:45:08;2.90;99.90
14057;DHT22;7103;54.300;10.180;2023-03-12T17:47:36;2.90;99.90
14057;DHT22;7103;54.300;10.180;2023-03-12T17:50:04;2.90;99.90
14057;DHT22;7103;54.300;10.180;2023-03-12T17:52:31;2.90;99.90
14057;DHT22;7103;54.300;10.180;2023-03-12T17:54:58;2.80;99.90
14057;DHT22;7103;54.300;10.180;2023-03-12T17:57:26;2.90;99.90
14057;DHT22;7103;54.300;10.180;2023-03-12T17:59:53;2.90;99.90
14057;DHT22;7103;54.300;10.180;2023-03-12T18:02:20;2.90;99.90